Search for airport 
image banner adimage banner ad
image banner ad

SIHA - Hotel Ariau Amazon Towers Heliport

Located in Iranduba, Brazil

ICAO - SIHA, IATA -

Data provided by Airmate  

General information

Coordinates: S28°49'6" W54°22'57"
Elevation is 1069 feet MSL.
Magnetic variation is -15° East
View others Airports in Rio Grande do Sul

Operational data

Open for public use
Current time UTC:
Current local time:
Weather at : SBNM - Santo Ângelo Airport ( 63 km )
METAR: SBNM 010900Z AUTO 12008KT 9000 NCD 18/17 Q1014
View NOTAMs / SUP AIP / TFR affecting this airport [VIEW]
Communications frequencies: [VIEW]

Runways:

RWY identifierQFULength (ft)Width (ft)SurfaceLDA (ft)
03269065GRASS
21269065GRASS

Airport contact information

Address: Iranduba Brazil

Satellite view of SIHA